Time;durP1;ratioP1;P1;durP2;ratioP2;P2;SDS_P1;SDS_P2;PMS_P1;PMS_P2;Temp;Humidity;BMP_temperature;BMP_pressure;BME280_temperature;BME280_humidity;BME280_pressure;Samples;Min_cycle;Max_cycle;Signal;HPM_P1;HPM_P2
2021/01/22 00:00:52;;;;;;;5.47;3.27;;;6.60;99.90;;;;;;5072540;28;20453;-75
2021/01/22 00:03:20;;;;;;;4.00;3.20;;;6.50;99.90;;;;;;5055486;28;20496;-75
2021/01/22 00:05:49;;;;;;;3.00;2.70;;;6.60;99.90;;;;;;5055205;28;20434;-75
2021/01/22 00:08:17;;;;;;;4.47;3.07;;;6.70;99.90;;;;;;5073722;28;20425;-75
2021/01/22 00:10:46;;;;;;;3.37;3.07;;;6.70;99.90;;;;;;5055440;28;20432;-75
2021/01/22 00:13:13;;;;;;;3.40;2.73;;;6.70;99.90;;;;;;5073559;28;20437;-75
2021/01/22 00:15:40;;;;;;;2.50;2.30;;;6.80;99.90;;;;;;5054890;28;20434;-75
2021/01/22 00:18:08;;;;;;;2.43;2.23;;;7.00;99.90;;;;;;5072571;28;20826;-76
2021/01/22 00:20:36;;;;;;;4.77;3.20;;;7.00;99.90;;;;;;5064749;28;20414;-78
2021/01/22 00:23:04;;;;;;;3.40;2.60;;;6.90;99.90;;;;;;5067554;28;20410;-74
2021/01/22 00:25:32;;;;;;;3.73;3.40;;;6.80;99.90;;;;;;5055826;28;20423;-74
2021/01/22 00:28:05;;;;;;;4.40;3.17;;;6.90;99.90;;;;;;5073041;28;20413;-74
2021/01/22 00:30:32;;;;;;;4.50;2.90;;;6.80;99.90;;;;;;5038979;28;20421;-76
2021/01/22 00:33:00;;;;;;;3.00;2.43;;;6.80;99.90;;;;;;5055399;28;20834;-75
2021/01/22 00:35:28;;;;;;;4.13;2.70;;;6.80;99.90;;;;;;5076219;28;20431;-75
2021/01/22 00:37:55;;;;;;;3.60;2.80;;;6.80;99.90;;;;;;5059945;28;20424;-74
2021/01/22 00:40:23;;;;;;;2.73;2.30;;;6.90;99.90;;;;;;5077415;28;20435;-75
2021/01/22 00:42:50;;;;;;;2.77;2.47;;;6.90;99.90;;;;;;5059291;28;20423;-76
2021/01/22 00:45:18;;;;;;;3.23;2.70;;;6.80;99.90;;;;;;5076513;28;20513;-75
2021/01/22 00:47:45;;;;;;;4.20;3.03;;;6.80;99.90;;;;;;5058775;28;20452;-74
2021/01/22 00:50:12;;;;;;;4.63;3.07;;;6.80;99.90;;;;;;5059353;28;20506;-76
2021/01/22 00:52:40;;;;;;;3.10;2.80;;;6.70;99.90;;;;;;5076926;28;20427;-75
2021/01/22 00:55:08;;;;;;;4.13;2.70;;;6.70;99.90;;;;;;5043047;28;20503;-75
2021/01/22 00:57:54;;;;;;;3.83;3.10;;;6.70;99.90;;;;;;5062106;28;20412;-75
2021/01/22 01:00:29;;;;;;;3.10;2.73;;;6.80;99.90;;;;;;5042156;28;20909;-75
2021/01/22 01:03:16;;;;;;;3.20;2.67;;;6.80;99.90;;;;;;5058795;28;20436;-75
2021/01/22 01:05:44;;;;;;;3.00;2.67;;;6.90;99.90;;;;;;5077243;28;20415;-78
2021/01/22 01:08:12;;;;;;;2.30;2.10;;;7.00;99.90;;;;;;5042896;28;20449;-75
2021/01/22 01:11:18;;;;;;;2.50;2.20;;;7.20;99.90;;;;;;5015290;28;20444;-79
2021/01/22 01:14:02;;;;;;;3.10;2.27;;;7.10;99.90;;;;;;4982008;28;20867;-75
2021/01/22 01:16:31;;;;;;;3.63;2.10;;;7.10;99.90;;;;;;5050371;28;20446;-76
2021/01/22 01:18:59;;;;;;;2.63;2.03;;;7.20;99.90;;;;;;5076792;28;20816;-75
2021/01/22 01:21:28;;;;;;;2.50;1.93;;;7.30;99.90;;;;;;5072980;28;20449;-75
2021/01/22 01:23:57;;;;;;;3.70;1.80;;;7.40;99.90;;;;;;5049294;28;20488;-75
2021/01/22 01:26:50;;;;;;;2.47;1.90;;;7.50;99.90;;;;;;5067821;28;20429;-75
2021/01/22 01:29:18;;;;;;;2.27;2.03;;;7.50;99.90;;;;;;5054249;28;20464;-75
2021/01/22 01:31:46;;;;;;;1.83;1.50;;;7.50;99.90;;;;;;5057691;28;20554;-75
2021/01/22 01:34:14;;;;;;;1.77;1.57;;;7.40;99.90;;;;;;5076380;28;20476;-75
2021/01/22 01:36:41;;;;;;;2.53;2.20;;;7.30;99.90;;;;;;5041502;28;20478;-75
2021/01/22 01:39:08;;;;;;;4.00;2.03;;;7.30;99.90;;;;;;5057982;28;20433;-75
2021/01/22 01:41:35;;;;;;;2.87;1.43;;;7.30;99.90;;;;;;5058478;28;20516;-76
2021/01/22 01:44:03;;;;;;;3.00;1.60;;;7.20;99.90;;;;;;5089879;28;20458;-75
2021/01/22 01:46:30;;;;;;;2.20;1.63;;;7.20;99.90;;;;;;5082547;28;20490;-75
2021/01/22 01:48:58;;;;;;;2.13;1.93;;;7.20;99.90;;;;;;5058838;28;20394;-79
2021/01/22 01:51:26;;;;;;;1.80;1.50;;;7.10;99.90;;;;;;5058004;28;20439;-75
2021/01/22 01:53:53;;;;;;;3.07;2.10;;;7.00;99.90;;;;;;5041884;28;20399;-75
2021/01/22 01:56:22;;;;;;;2.83;2.27;;;7.00;99.90;;;;;;5075791;28;20839;-75
2021/01/22 01:58:50;;;;;;;2.00;1.80;;;6.90;99.90;;;;;;5075819;28;20855;-75
2021/01/22 02:01:19;;;;;;;2.50;2.10;;;6.80;99.90;;;;;;5056668;28;20941;-75
2021/01/22 02:03:47;;;;;;;3.93;2.27;;;6.70;99.90;;;;;;5076335;28;20406;-75
2021/01/22 02:06:16;;;;;;;1.40;1.30;;;6.50;99.90;;;;;;5076843;28;20434;-75
2021/01/22 02:09:09;;;;;;;3.97;1.97;;;6.40;99.90;;;;;;5057612;28;20537;-75
2021/01/22 02:11:38;;;;;;;2.57;1.80;;;6.50;99.90;;;;;;5075876;28;20430;-75
2021/01/22 02:14:05;;;;;;;2.23;1.50;;;6.60;99.90;;;;;;5075169;28;20410;-75
2021/01/22 02:16:34;;;;;;;1.40;1.30;;;6.70;99.90;;;;;;5056992;28;20518;-78
2021/01/22 02:19:04;;;;;;;1.30;1.20;;;6.90;99.90;;;;;;5057560;28;20927;-77
2021/01/22 02:21:34;;;;;;;4.90;1.80;;;7.00;99.90;;;;;;5057937;28;20427;-76
2021/01/22 02:24:12;;;;;;;1.60;1.23;;;7.10;99.90;;;;;;5075765;28;20493;-75
2021/01/22 02:27:00;;;;;;;1.73;1.63;;;7.20;99.90;;;;;;5075609;28;20412;-75
2021/01/22 02:29:31;;;;;;;1.57;1.37;;;7.40;99.90;;;;;;5075955;28;20413;-76
2021/01/22 02:32:04;;;;;;;2.60;1.23;;;7.40;99.90;;;;;;5074852;28;21058;-75
2021/01/22 02:34:37;;;;;;;1.50;1.40;;;7.50;99.90;;;;;;5058336;28;20777;-76
2021/01/22 02:37:19;;;;;;;1.73;1.10;;;7.50;99.90;;;;;;5029249;28;20758;-72
2021/01/22 02:39:50;;;;;;;3.60;1.17;;;7.60;99.90;;;;;;5032062;28;20427;-75
2021/01/22 02:42:20;;;;;;;1.47;1.30;;;7.70;99.90;;;;;;5032438;28;20713;-72
2021/01/22 02:44:48;;;;;;;1.43;1.27;;;7.70;99.90;;;;;;5032174;28;20411;-71
2021/01/22 02:47:17;;;;;;;0.83;0.80;;;7.70;99.90;;;;;;5029832;28;20444;-75
2021/01/22 02:49:44;;;;;;;3.47;1.30;;;7.60;99.90;;;;;;5032178;28;20412;-71
2021/01/22 02:52:11;;;;;;;1.70;1.30;;;7.70;99.90;;;;;;5047012;28;20619;-74
2021/01/22 02:54:38;;;;;;;2.00;1.40;;;7.60;99.90;;;;;;5031988;28;20425;-71
2021/01/22 02:57:19;;;;;;;2.07;1.03;;;7.60;99.90;;;;;;5013797;28;20822;-71
2021/01/22 02:59:56;;;;;;;1.30;1.00;;;7.70;99.90;;;;;;5030352;28;20542;-71
2021/01/22 03:02:29;;;;;;;1.70;1.30;;;7.70;99.90;;;;;;5046570;28;20504;-71
2021/01/22 03:04:57;;;;;;;1.87;1.40;;;7.70;99.90;;;;;;5031891;28;20533;-71
2021/01/22 03:07:29;;;;;;;1.73;1.50;;;7.80;99.90;;;;;;5032440;28;20867;-71
2021/01/22 03:09:59;;;;;;;1.77;1.20;;;7.80;99.90;;;;;;5031619;28;20430;-71
2021/01/22 03:12:31;;;;;;;1.80;1.40;;;7.80;99.90;;;;;;5013508;28;20549;-72
2021/01/22 03:14:59;;;;;;;1.50;1.23;;;7.90;99.90;;;;;;5014108;28;20402;-72
2021/01/22 03:17:26;;;;;;;1.50;1.40;;;8.00;99.90;;;;;;5030568;28;20459;-71
2021/01/22 03:19:56;;;;;;;1.63;1.40;;;7.90;99.90;;;;;;5013526;28;20478;-71
2021/01/22 03:22:48;;;;;;;2.37;1.60;;;7.90;99.90;;;;;;5031155;28;20425;-71
2021/01/22 03:25:16;;;;;;;1.70;1.60;;;7.90;99.90;;;;;;5031646;28;20446;-76
2021/01/22 03:27:45;;;;;;;2.07;1.30;;;8.00;99.90;;;;;;5013035;28;20795;-71
2021/01/22 03:30:13;;;;;;;1.37;0.90;;;8.10;99.90;;;;;;5009419;28;20512;-71
2021/01/22 03:32:41;;;;;;;1.40;1.30;;;8.10;99.90;;;;;;5029874;28;20559;-72
2021/01/22 03:35:10;;;;;;;3.53;1.47;;;8.10;99.90;;;;;;5029885;28;21141;-73
2021/01/22 03:37:39;;;;;;;1.30;1.20;;;8.10;99.90;;;;;;5030092;28;20470;-72
2021/01/22 03:40:07;;;;;;;2.07;1.40;;;8.20;99.90;;;;;;5031744;28;20542;-71
2021/01/22 03:42:34;;;;;;;1.40;1.30;;;8.20;99.90;;;;;;5031645;28;20489;-71
2021/01/22 03:45:04;;;;;;;2.07;1.40;;;8.20;99.90;;;;;;5065505;22;20500;-76
2021/01/22 03:47:31;;;;;;;3.47;1.63;;;8.20;99.90;;;;;;5016056;28;20481;-76
2021/01/22 03:49:59;;;;;;;1.47;1.37;;;8.30;99.90;;;;;;5033339;28;20507;-76
2021/01/22 03:52:28;;;;;;;1.40;1.23;;;8.30;99.90;;;;;;5016524;28;20442;-78
2021/01/22 03:54:56;;;;;;;1.40;1.10;;;8.20;99.90;;;;;;5032967;28;20509;-75
2021/01/22 03:57:23;;;;;;;2.07;1.87;;;8.20;99.90;;;;;;5016237;28;20435;-76
2021/01/22 03:59:51;;;;;;;1.53;1.40;;;8.20;99.90;;;;;;5039430;28;20438;-75
2021/01/22 04:02:20;;;;;;;1.20;1.10;;;8.10;99.90;;;;;;5066565;28;20473;-76
2021/01/22 04:04:48;;;;;;;1.60;1.10;;;8.10;99.90;;;;;;5036732;28;20437;-80
2021/01/22 04:07:16;;;;;;;1.57;1.00;;;8.10;99.90;;;;;;5020347;28;20434;-76
2021/01/22 04:09:44;;;;;;;2.10;1.50;;;8.10;99.90;;;;;;5037756;28;20437;-76
2021/01/22 04:12:11;;;;;;;2.23;1.30;;;8.10;99.90;;;;;;5040439;28;21040;-76
2021/01/22 04:14:39;;;;;;;1.70;1.17;;;8.10;99.90;;;;;;5024024;28;20954;-76
2021/01/22 04:17:06;;;;;;;1.87;1.20;;;8.10;99.90;;;;;;5022861;28;20999;-76
2021/01/22 04:19:35;;;;;;;1.30;1.10;;;8.00;99.90;;;;;;5040217;28;20412;-79
2021/01/22 04:22:02;;;;;;;3.50;1.00;;;8.10;99.90;;;;;;5040192;28;20473;-79
2021/01/22 04:24:30;;;;;;;3.03;1.10;;;7.90;99.90;;;;;;5040205;28;20491;-76
2021/01/22 04:27:02;;;;;;;2.10;1.00;;;8.00;99.90;;;;;;5039432;28;20507;-79
2021/01/22 04:29:31;;;;;;;4.67;1.20;;;8.00;99.90;;;;;;5040926;28;20441;-76
2021/01/22 04:31:59;;;;;;;2.43;0.97;;;7.90;99.90;;;;;;5022293;28;20457;-76
2021/01/22 04:34:26;;;;;;;2.43;1.40;;;7.90;99.90;;;;;;5040698;28;20512;-77
2021/01/22 04:36:55;;;;;;;1.77;1.10;;;7.90;99.90;;;;;;5023141;28;20552;-76
2021/01/22 04:39:23;;;;;;;2.20;0.93;;;7.80;99.90;;;;;;5040717;28;20502;-76
2021/01/22 04:41:50;;;;;;;1.40;1.30;;;7.70;99.90;;;;;;5034777;28;20421;-79
2021/01/22 04:44:18;;;;;;;1.13;1.03;;;7.70;99.90;;;;;;5026818;28;20535;-76
2021/01/22 04:46:48;;;;;;;1.23;1.10;;;7.60;99.90;;;;;;5020318;28;20497;-76
2021/01/22 04:49:17;;;;;;;0.83;0.83;;;7.50;99.90;;;;;;5004013;28;20502;-76
2021/01/22 04:51:45;;;;;;;1.10;0.97;;;7.40;99.90;;;;;;5036875;28;20430;-76
2021/01/22 04:54:27;;;;;;;1.17;0.77;;;7.40;99.90;;;;;;5020707;28;20544;-76
2021/01/22 04:57:04;;;;;;;1.63;1.33;;;7.40;99.90;;;;;;5038438;28;20462;-77
2021/01/22 04:59:45;;;;;;;1.20;1.10;;;7.40;99.90;;;;;;5005745;28;20518;-78
2021/01/22 05:02:14;;;;;;;2.10;1.30;;;7.30;99.90;;;;;;5043657;28;20551;-78
2021/01/22 05:04:41;;;;;;;2.23;1.23;;;7.30;99.90;;;;;;5037798;28;20451;-77
2021/01/22 05:07:10;;;;;;;1.83;1.20;;;7.30;99.90;;;;;;5027129;28;20921;-78
2021/01/22 05:09:40;;;;;;;1.20;1.03;;;7.20;99.90;;;;;;5019684;28;20440;-76
2021/01/22 05:12:09;;;;;;;2.40;1.23;;;7.20;99.90;;;;;;5018979;28;20462;-75
2021/01/22 05:14:37;;;;;;;2.73;1.13;;;7.20;99.90;;;;;;5036679;28;20464;-76
2021/01/22 05:17:07;;;;;;;2.57;1.23;;;7.20;99.90;;;;;;5034890;28;20560;-80
2021/01/22 05:19:36;;;;;;;1.70;0.90;;;7.20;99.90;;;;;;5018824;28;20457;-77
2021/01/22 05:22:05;;;;;;;2.33;0.93;;;7.10;99.90;;;;;;5033657;28;20790;-76
2021/01/22 05:24:34;;;;;;;1.83;1.00;;;7.20;99.90;;;;;;5034514;28;20411;-79
2021/01/22 05:27:06;;;;;;;2.30;1.37;;;7.20;99.90;;;;;;5017921;28;20430;-76
2021/01/22 05:29:36;;;;;;;1.50;0.90;;;7.10;99.90;;;;;;4999525;28;21556;-76
2021/01/22 05:32:24;;;;;;;3.23;1.77;;;7.20;99.90;;;;;;5033502;28;20533;-77
2021/01/22 05:34:53;;;;;;;2.07;1.03;;;7.20;99.90;;;;;;5035170;28;20930;-76
2021/01/22 05:37:21;;;;;;;2.40;1.23;;;7.20;99.90;;;;;;5018031;28;20436;-80
2021/01/22 05:40:08;;;;;;;3.20;1.33;;;7.20;99.90;;;;;;5018265;28;20499;-80
2021/01/22 05:42:47;;;;;;;1.83;1.07;;;7.10;99.90;;;;;;5018384;28;20445;-77
2021/01/22 05:45:16;;;;;;;2.07;1.33;;;7.20;99.90;;;;;;5017396;28;20472;-76
2021/01/22 05:47:44;;;;;;;2.30;1.03;;;7.10;99.90;;;;;;5029456;28;20485;-75
2021/01/22 05:50:12;;;;;;;5.27;1.90;;;7.00;99.90;;;;;;5025527;28;20462;-75
2021/01/22 05:52:40;;;;;;;1.87;0.90;;;6.90;99.90;;;;;;5025165;28;20506;-76
2021/01/22 05:55:21;;;;;;;2.07;1.13;;;7.00;99.90;;;;;;5025335;28;20463;-76
2021/01/22 05:57:50;;;;;;;1.50;1.30;;;7.00;99.90;;;;;;5008573;28;20566;-76
2021/01/22 06:00:19;;;;;;;1.27;1.10;;;6.90;99.90;;;;;;5025167;28;20456;-76
2021/01/22 06:02:47;;;;;;;1.00;0.90;;;7.00;99.90;;;;;;5008504;28;20538;-77
2021/01/22 06:05:16;;;;;;;4.27;1.20;;;7.00;99.90;;;;;;5008830;28;20454;-77
2021/01/22 06:07:46;;;;;;;3.93;0.93;;;7.10;99.90;;;;;;5009216;28;20473;-76
2021/01/22 06:10:17;;;;;;;3.07;1.00;;;7.10;99.90;;;;;;5009314;28;20724;-75
2021/01/22 06:12:51;;;;;;;4.77;1.50;;;7.10;99.90;;;;;;5026760;28;20512;-75
2021/01/22 06:15:20;;;;;;;1.30;0.83;;;7.10;99.90;;;;;;5027478;28;20423;-76
2021/01/22 06:17:50;;;;;;;2.20;1.50;;;7.20;99.90;;;;;;5009674;28;22126;-77
2021/01/22 06:20:20;;;;;;;1.00;0.90;;;7.30;99.90;;;;;;5026772;28;20979;-75
2021/01/22 06:23:03;;;;;;;1.67;1.00;;;7.30;99.90;;;;;;5026706;28;20461;-75
2021/01/22 06:25:31;;;;;;;3.67;1.17;;;7.30;99.90;;;;;;5009171;28;20589;-75
2021/01/22 06:28:02;;;;;;;1.23;1.07;;;7.50;99.90;;;;;;5025614;28;20464;-76
2021/01/22 06:30:34;;;;;;;2.50;1.00;;;7.50;99.90;;;;;;5030055;28;20450;-75
2021/01/22 06:33:05;;;;;;;1.90;0.97;;;7.60;99.90;;;;;;5012630;28;20582;-76
2021/01/22 06:35:37;;;;;;;3.90;1.23;;;7.60;99.90;;;;;;5026823;28;20465;-75
2021/01/22 06:38:31;;;;;;;1.17;1.07;;;7.50;99.90;;;;;;5032025;28;20475;-76
2021/01/22 06:40:59;;;;;;;1.13;0.70;;;7.60;99.90;;;;;;5015747;28;20462;-75
2021/01/22 06:43:29;;;;;;;1.97;0.90;;;7.60;99.90;;;;;;5025807;28;20532;-75
2021/01/22 06:46:01;;;;;;;1.13;1.00;;;7.70;99.90;;;;;;5024802;28;20529;-76
2021/01/22 06:48:28;;;;;;;3.13;1.20;;;7.80;99.90;;;;;;5024258;28;20524;-76
2021/01/22 06:51:16;;;;;;;1.90;0.90;;;7.70;99.90;;;;;;5007493;28;20441;-75
2021/01/22 06:54:07;;;;;;;2.50;1.40;;;7.80;99.90;;;;;;5024899;28;20494;-76
2021/01/22 06:56:36;;;;;;;2.13;1.10;;;7.90;99.90;;;;;;5008776;28;21002;-75
2021/01/22 06:59:35;;;;;;;1.37;1.17;;;7.90;99.90;;;;;;5008275;28;20445;-75
2021/01/22 07:02:04;;;;;;;2.47;0.83;;;7.90;99.90;;;;;;5024188;28;20878;-76
2021/01/22 07:04:41;;;;;;;1.37;0.90;;;8.00;99.90;;;;;;5007945;28;20973;-77
2021/01/22 07:07:47;;;;;;;2.80;1.23;;;7.90;99.90;;;;;;5025703;28;20506;-78
2021/01/22 07:10:15;;;;;;;1.13;1.03;;;7.80;99.90;;;;;;5009755;28;20474;-75
2021/01/22 07:12:45;;;;;;;0.93;0.73;;;7.80;99.90;;;;;;5009917;28;20465;-77
2021/01/22 07:15:32;;;;;;;1.30;0.70;;;7.90;99.90;;;;;;5026979;28;20448;-76
2021/01/22 07:18:01;;;;;;;1.50;0.97;;;8.00;99.90;;;;;;5011423;28;20517;-78
2021/01/22 07:20:29;;;;;;;1.53;0.80;;;7.90;99.90;;;;;;5017258;28;20902;-77
2021/01/22 07:23:26;;;;;;;1.40;0.70;;;7.90;99.90;;;;;;5053026;28;20503;-77
2021/01/22 07:25:56;;;;;;;0.97;0.83;;;7.80;99.90;;;;;;5036675;28;20560;-76
2021/01/22 07:28:26;;;;;;;1.80;0.83;;;7.90;99.90;;;;;;5038157;28;20478;-75
2021/01/22 07:30:55;;;;;;;5.33;1.03;;;8.00;99.90;;;;;;5017073;28;20469;-74
2021/01/22 07:33:37;;;;;;;0.73;0.73;;;8.10;99.90;;;;;;5035478;28;20502;-77
2021/01/22 07:36:07;;;;;;;0.70;0.60;;;8.20;99.90;;;;;;5026616;28;20453;-78
2021/01/22 07:38:39;;;;;;;0.93;0.80;;;8.30;99.90;;;;;;5010398;28;21190;-77
2021/01/22 07:41:08;;;;;;;0.80;0.67;;;8.60;99.90;;;;;;5024991;28;20491;-77
2021/01/22 07:43:36;;;;;;;1.17;0.87;;;8.70;99.90;;;;;;5008013;28;20479;-75
2021/01/22 07:46:06;;;;;;;2.20;0.57;;;9.10;99.90;;;;;;5010415;28;21039;-80
2021/01/22 07:48:34;;;;;;;0.50;0.50;;;9.30;99.90;;;;;;5029001;28;20459;-75
2021/01/22 07:51:30;;;;;;;5.00;0.83;;;9.50;99.90;;;;;;5012989;28;20785;-75
2021/01/22 07:53:59;;;;;;;0.80;0.63;;;9.40;99.90;;;;;;5012129;28;20603;-76
2021/01/22 07:56:35;;;;;;;1.10;0.73;;;9.50;99.90;;;;;;5011235;28;20570;-77
2021/01/22 07:59:07;;;;;;;0.80;0.50;;;9.40;99.90;;;;;;5011626;28;20438;-75
2021/01/22 08:01:36;;;;;;;1.30;0.63;;;9.50;99.90;;;;;;5011900;28;20520;-75
2021/01/22 08:04:05;;;;;;;1.60;0.60;;;9.50;99.90;;;;;;5028221;28;20482;-75
2021/01/22 08:06:48;;;;;;;1.83;0.97;;;9.40;99.90;;;;;;5011628;28;20459;-75
2021/01/22 08:09:17;;;;;;;0.80;0.70;;;9.40;99.90;;;;;;5011897;28;20467;-75
2021/01/22 08:11:45;;;;;;;0.70;0.67;;;9.50;99.90;;;;;;5029765;28;20539;-75
2021/01/22 08:14:13;;;;;;;1.33;1.20;;;9.70;99.90;;;;;;5013495;28;20473;-75
2021/01/22 08:16:42;;;;;;;1.60;1.33;;;9.60;99.90;;;;;;5010460;28;20471;-75
2021/01/22 08:19:10;;;;;;;1.90;0.50;;;9.30;99.90;;;;;;5011344;28;20490;-76
2021/01/22 08:21:38;;;;;;;1.60;0.87;;;9.30;99.90;;;;;;5011505;28;20472;-76
2021/01/22 08:24:09;;;;;;;1.00;0.70;;;9.30;99.90;;;;;;5028029;28;20490;-77
2021/01/22 08:26:37;;;;;;;4.73;0.97;;;9.40;99.90;;;;;;5027961;28;20887;-75
2021/01/22 08:29:05;;;;;;;3.27;0.70;;;9.50;99.90;;;;;;5012519;28;20474;-77
2021/01/22 08:31:34;;;;;;;0.70;0.53;;;9.70;99.90;;;;;;5010258;28;20569;-76
2021/01/22 08:36:58;;;;;;;0.83;0.67;;;10.00;99.90;;;;;;5029732;28;20600;-76
2021/01/22 08:39:26;;;;;;;1.70;1.07;;;10.10;99.90;;;;;;5029613;28;20470;-78
2021/01/22 08:41:53;;;;;;;0.50;0.50;;;10.10;99.90;;;;;;5030524;28;20593;-77
2021/01/22 08:44:30;;;;;;;2.30;0.80;;;10.20;99.90;;;;;;5029747;28;20475;-76
2021/01/22 08:46:58;;;;;;;1.17;0.70;;;10.20;99.90;;;;;;5027881;28;20482;-77
2021/01/22 08:49:27;;;;;;;8.43;1.40;;;9.90;99.90;;;;;;5012237;28;20498;-78
2021/01/22 08:51:57;;;;;;;1.50;0.77;;;10.10;99.90;;;;;;5012621;28;20488;-76
2021/01/22 08:54:37;;;;;;;1.83;0.70;;;10.20;99.90;;;;;;5028789;28;20486;-76
2021/01/22 08:57:05;;;;;;;1.30;0.70;;;10.50;99.90;;;;;;5012873;28;20596;-77
2021/01/22 08:59:47;;;;;;;1.07;0.60;;;10.70;99.90;;;;;;5012785;28;20503;-78
2021/01/22 09:02:15;;;;;;;1.00;0.50;;;10.90;99.90;;;;;;5011894;28;20962;-77
2021/01/22 09:04:45;;;;;;;0.93;0.80;;;10.80;99.90;;;;;;5011981;28;20479;-77
2021/01/22 09:07:17;;;;;;;1.37;0.80;;;10.90;99.90;;;;;;5028645;28;20471;-76
2021/01/22 09:09:47;;;;;;;0.83;0.70;;;10.90;99.90;;;;;;5012338;28;20932;-77
2021/01/22 09:12:18;;;;;;;0.87;0.73;;;10.90;99.90;;;;;;5012481;28;20471;-77
2021/01/22 09:15:00;;;;;;;1.03;0.70;;;10.70;99.90;;;;;;5015668;28;20846;-77
2021/01/22 09:17:39;;;;;;;1.53;0.97;;;10.70;99.90;;;;;;5019692;28;20533;-76
2021/01/22 09:20:15;;;;;;;1.43;0.80;;;10.40;99.90;;;;;;5013935;28;20528;-77
2021/01/22 09:22:44;;;;;;;3.63;0.70;;;10.40;99.90;;;;;;5013274;28;20463;-76
2021/01/22 09:25:15;;;;;;;1.80;0.77;;;10.60;99.90;;;;;;5041462;28;20448;-76
2021/01/22 09:27:44;;;;;;;1.40;0.90;;;10.60;99.90;;;;;;5023631;28;20505;-76
2021/01/22 09:30:14;;;;;;;0.90;0.70;;;10.80;99.90;;;;;;5027452;28;20471;-75
2021/01/22 09:32:45;;;;;;;1.77;1.10;;;10.90;99.90;;;;;;5010103;28;20475;-79
2021/01/22 09:35:17;;;;;;;1.53;0.80;;;10.90;99.90;;;;;;5026504;28;20461;-75
2021/01/22 09:37:45;;;;;;;3.33;1.60;;;11.30;99.90;;;;;;5010605;28;20483;-77
2021/01/22 09:40:13;;;;;;;1.00;0.60;;;11.30;99.90;;;;;;5026742;28;20472;-77
2021/01/22 09:42:41;;;;;;;2.27;1.00;;;11.60;99.80;;;;;;5010824;28;20468;-77
2021/01/22 09:45:10;;;;;;;1.20;0.87;;;11.70;99.50;;;;;;5026482;28;20520;-77
2021/01/22 09:47:39;;;;;;;1.70;0.90;;;11.70;99.80;;;;;;5009565;28;20513;-78
2021/01/22 09:50:09;;;;;;;0.60;0.50;;;11.80;99.00;;;;;;5010161;28;20481;-76
2021/01/22 09:52:38;;;;;;;3.60;0.90;;;12.00;98.90;;;;;;5010437;28;21623;-76
2021/01/22 09:55:08;;;;;;;0.93;0.67;;;11.90;98.60;;;;;;5010461;28;20494;-77
2021/01/22 09:57:36;;;;;;;2.60;0.80;;;12.30;98.60;;;;;;5026386;28;20482;-77
2021/01/22 10:00:06;;;;;;;0.80;0.60;;;12.60;97.70;;;;;;5009819;28;20957;-78
2021/01/22 10:02:34;;;;;;;4.20;1.00;;;12.60;97.40;;;;;;4988784;28;20487;-77
2021/01/22 10:05:04;;;;;;;1.20;0.60;;;13.10;96.90;;;;;;5006249;28;20472;-78
2021/01/22 10:07:33;;;;;;;1.10;0.60;;;13.10;96.00;;;;;;4989478;28;20856;-77
2021/01/22 10:10:02;;;;;;;7.33;1.30;;;13.20;96.20;;;;;;4990447;28;20469;-78
2021/01/22 10:12:31;;;;;;;1.50;0.70;;;13.30;96.00;;;;;;4990184;28;20864;-78
2021/01/22 10:14:58;;;;;;;0.70;0.60;;;13.50;95.80;;;;;;5006704;28;20501;-77
2021/01/22 10:17:27;;;;;;;1.47;0.90;;;13.30;95.30;;;;;;5008582;28;20535;-79
2021/01/22 10:19:55;;;;;;;1.20;0.60;;;13.10;95.50;;;;;;5010385;28;20466;-77
2021/01/22 10:22:23;;;;;;;1.53;0.60;;;13.50;95.50;;;;;;5015285;28;20478;-79
2021/01/22 10:24:51;;;;;;;1.47;0.80;;;13.60;95.10;;;;;;5033945;28;20996;-78
2021/01/22 10:27:20;;;;;;;1.13;0.43;;;13.20;95.00;;;;;;5014407;28;20999;-78
2021/01/22 10:29:48;;;;;;;1.77;1.10;;;13.60;94.90;;;;;;5013764;28;20562;-78
2021/01/22 10:32:16;;;;;;;0.93;0.70;;;14.40;93.90;;;;;;5027854;28;21129;-78
2021/01/22 10:34:44;;;;;;;1.70;0.70;;;14.60;93.30;;;;;;5012396;28;20594;-79
2021/01/22 10:37:12;;;;;;;7.83;0.97;;;14.20;93.60;;;;;;5014169;28;20479;-79
2021/01/22 10:39:39;;;;;;;2.10;1.17;;;14.40;93.50;;;;;;5028151;28;20487;-77
2021/01/22 10:42:08;;;;;;;2.23;2.07;;;14.90;92.90;;;;;;5025602;28;20489;-79
2021/01/22 10:44:36;;;;;;;1.43;1.20;;;14.70;92.50;;;;;;5008651;28;20479;-77
2021/01/22 10:47:05;;;;;;;1.50;0.93;;;14.10;92.80;;;;;;5008448;28;20850;-78
2021/01/22 10:49:32;;;;;;;3.27;1.10;;;13.80;93.30;;;;;;5009149;28;20509;-78
2021/01/22 10:52:01;;;;;;;2.83;1.10;;;13.40;93.70;;;;;;5009310;28;20474;-78
2021/01/22 10:54:29;;;;;;;1.43;0.80;;;13.30;94.50;;;;;;5009916;28;20909;-78
2021/01/22 10:57:22;;;;;;;4.13;1.00;;;13.60;93.90;;;;;;5008972;28;20461;-78
2021/01/22 10:59:51;;;;;;;2.50;0.67;;;13.80;93.70;;;;;;5008572;28;20472;-79
2021/01/22 11:02:19;;;;;;;4.20;1.00;;;14.30;93.10;;;;;;5008085;28;20475;-77
2021/01/22 11:04:47;;;;;;;1.30;0.80;;;14.20;92.60;;;;;;5008359;28;20550;-79
2021/01/22 11:07:16;;;;;;;1.80;0.80;;;14.10;93.20;;;;;;5009005;28;21483;-77
2021/01/22 11:09:46;;;;;;;1.97;0.90;;;14.20;92.80;;;;;;5009272;28;21075;-79
2021/01/22 11:12:15;;;;;;;4.03;0.93;;;13.90;93.10;;;;;;5025801;28;20467;-78
2021/01/22 11:14:46;;;;;;;1.03;0.80;;;14.10;93.00;;;;;;5024986;28;20547;-79
2021/01/22 11:17:15;;;;;;;0.87;0.67;;;14.50;92.90;;;;;;5008183;28;20479;-78
2021/01/22 11:19:43;;;;;;;0.87;0.80;;;14.40;92.50;;;;;;5010012;28;20489;-78
2021/01/22 11:22:12;;;;;;;2.20;0.80;;;14.00;92.80;;;;;;5010641;28;21041;-77
2021/01/22 11:24:41;;;;;;;3.27;0.97;;;14.20;92.70;;;;;;5025582;28;20606;-77
2021/01/22 11:27:10;;;;;;;0.83;0.67;;;14.30;92.30;;;;;;5008732;28;20456;-77
2021/01/22 11:29:38;;;;;;;2.20;0.77;;;14.80;91.90;;;;;;5009403;28;20994;-77
2021/01/22 11:32:05;;;;;;;1.20;0.90;;;15.70;91.00;;;;;;5023418;28;20570;-78
2021/01/22 11:34:35;;;;;;;1.77;0.60;;;16.20;89.40;;;;;;5025586;28;20502;-78
2021/01/22 11:37:03;;;;;;;2.00;0.73;;;15.90;90.00;;;;;;5014144;28;20495;-77
2021/01/22 11:39:57;;;;;;;2.50;1.07;;;15.90;90.30;;;;;;5041491;28;20505;-78
2021/01/22 11:42:28;;;;;;;3.50;1.07;;;15.90;89.70;;;;;;5051982;22;20525;-74
2021/01/22 11:44:56;;;;;;;4.47;1.33;;;16.30;89.10;;;;;;5028055;28;20460;-74
2021/01/22 11:47:23;;;;;;;1.03;0.80;;;16.10;89.30;;;;;;5045672;28;20927;-73
2021/01/22 11:49:52;;;;;;;1.03;0.77;;;16.20;88.60;;;;;;5046748;28;20481;-74
2021/01/22 11:52:21;;;;;;;3.20;0.90;;;16.10;88.30;;;;;;5012338;28;20469;-73
2021/01/22 11:54:49;;;;;;;1.70;0.70;;;15.80;88.90;;;;;;5027902;28;20868;-73
2021/01/22 11:57:16;;;;;;;1.37;0.80;;;14.90;90.50;;;;;;5045970;28;20503;-75
2021/01/22 11:59:44;;;;;;;4.77;1.27;;;14.50;91.10;;;;;;5028130;28;20477;-73
2021/01/22 12:02:12;;;;;;;1.80;0.80;;;14.20;91.80;;;;;;5044850;28;20477;-75
2021/01/22 12:05:07;;;;;;;2.50;0.80;;;14.60;91.70;;;;;;5026048;28;20481;-74
2021/01/22 12:07:34;;;;;;;3.60;1.33;;;15.00;91.20;;;;;;5045160;28;20459;-73
2021/01/22 12:10:03;;;;;;;1.53;1.07;;;15.60;90.00;;;;;;5027769;28;20553;-74
2021/01/22 12:12:31;;;;;;;1.73;1.43;;;16.20;88.30;;;;;;5046030;28;20812;-74
2021/01/22 12:14:58;;;;;;;4.80;2.90;;;16.00;89.20;;;;;;5045427;28;20486;-73
2021/01/22 12:17:43;;;;;;;1.53;0.93;;;15.90;89.10;;;;;;5027194;28;20505;-74
2021/01/22 12:20:12;;;;;;;4.03;3.10;;;15.10;89.70;;;;;;5011642;28;20537;-74
2021/01/22 12:22:39;;;;;;;2.50;2.10;;;15.20;90.90;;;;;;5046883;28;20480;-73
2021/01/22 12:25:08;;;;;;;2.97;1.83;;;15.90;90.50;;;;;;5029549;28;20980;-73
2021/01/22 12:27:36;;;;;;;3.30;2.80;;;15.60;90.10;;;;;;5013255;28;20458;-73
2021/01/22 12:30:04;;;;;;;3.03;1.90;;;15.90;89.40;;;;;;5033370;28;20457;-73
2021/01/22 12:32:31;;;;;;;2.90;1.50;;;15.70;88.80;;;;;;5036687;28;20522;-74
2021/01/22 12:35:00;;;;;;;1.97;1.80;;;15.60;89.20;;;;;;5036522;28;21117;-74
2021/01/22 12:37:29;;;;;;;4.00;1.40;;;15.80;88.60;;;;;;5050830;28;20548;-73
2021/01/22 12:39:58;;;;;;;3.70;2.53;;;16.00;88.40;;;;;;5032234;28;20561;-74
2021/01/22 12:42:26;;;;;;;2.40;1.70;;;16.40;87.50;;;;;;5053442;23;20491;-78
2021/01/22 12:44:54;;;;;;;3.13;1.10;;;16.20;86.80;;;;;;5018368;28;20466;-77
2021/01/22 12:47:21;;;;;;;1.17;0.80;;;15.30;88.50;;;;;;5023221;28;20507;-78
2021/01/22 12:49:52;;;;;;;4.00;1.40;;;15.60;88.60;;;;;;4993830;28;20495;-78
2021/01/22 12:52:20;;;;;;;2.50;1.00;;;15.60;88.20;;;;;;5012218;28;20576;-77
2021/01/22 12:54:48;;;;;;;1.57;1.10;;;15.90;88.10;;;;;;4994044;28;20523;-77
2021/01/22 12:57:16;;;;;;;2.80;1.67;;;16.40;86.10;;;;;;5005769;28;20470;-81
2021/01/22 12:59:45;;;;;;;1.47;1.23;;;16.70;85.80;;;;;;5006788;28;20468;-78
2021/01/22 13:02:18;;;;;;;1.63;0.80;;;17.80;83.40;;;;;;5017222;28;20503;-79
2021/01/22 13:04:50;;;;;;;1.00;0.90;;;18.60;79.30;;;;;;5019285;28;20464;-78
2021/01/22 13:07:21;;;;;;;1.20;0.80;;;18.30;78.20;;;;;;5002475;28;20551;-78
2021/01/22 13:09:50;;;;;;;1.63;0.93;;;19.50;75.80;;;;;;5005313;28;20452;-79
2021/01/22 13:12:22;;;;;;;3.80;0.87;;;19.20;74.00;;;;;;5022377;28;20494;-78
2021/01/22 13:14:52;;;;;;;2.27;1.30;;;18.20;76.00;;;;;;5005458;28;20499;-78